< < Back
Terminal Aerodrome Forecast


Current Version              Previous Versions:   1  2  3  4  5  6  7  8  9  

Terminal Aerodrome Forecast

658
FTUS44 KBMX 170900 AAA
TAFANB
TAF AMD
KANB 170951Z 1710/1806 00000KT 5SM BR OVC018
     FM171600 35005KT P6SM SCT250
     FM180300 00000KT P6SM BKN250=

Latest METAR

243
SAUS70 KWBC 172100 RRN
MTRANB
METAR KANB 172053Z AUTO 33006KT 10SM OVC021 08/02 A3020 RMK AO2 SLP235
T00830022 55012


USA.gov is the U.S. government's official web portal to all federal, state and local government web resources and services.